Loveland, Colorado
Current Conditions -  °F | °C
As of 6:15 PM on Tuesday 27 Jan 2015 (Local Time) from KFNL Reporting Station
Clear Clear  
Wind Chill: 57°   Ceiling: Unl
Heat Index: 57°   Visibility: 10mi
Dew Point: 25°   Wind: 0mph
Humidity: 29%   Direction: NA
Pressure: 30.02"   Gusts: NA
Location:  40.39°N, 105.07°W
Report Text: KFNL 280115Z AUTO 00000KT 10SM CLR 14/M04 A3002 RMK AO1
Loading
Personal Weather Stations






























Interactive Weather Map New forecast layout! Learn more

10-Day Weather Forecast

Advertisements
Track Severe Weather on mobile